Time;durP1;ratioP1;P1;durP2;ratioP2;P2;SDS_P1;SDS_P2;PMS_P1;PMS_P2;Temp;Humidity;BMP_temperature;BMP_pressure;BME280_temperature;BME280_humidity;BME280_pressure;Samples;Min_cycle;Max_cycle;Signal;HPM_P1;HPM_P2
2022/06/07 00:02:19;;;;;;;1.63;1.52;;;;;;;;;;4953774;29;20224;-87
2022/06/07 00:04:46;;;;;;;2.20;1.58;;;;;;;;;;4952190;29;20227;-88
2022/06/07 00:07:14;;;;;;;2.75;1.83;;;;;;;;;;4956346;28;20204;-87
2022/06/07 00:09:41;;;;;;;1.90;1.80;;;;;;;;;;4957373;28;20271;-87
2022/06/07 00:12:09;;;;;;;1.50;1.40;;;;;;;;;;4953246;29;20665;-88
2022/06/07 00:14:36;;;;;;;1.98;1.60;;;;;;;;;;4950994;29;20208;-87
2022/06/07 00:17:06;;;;;;;1.90;1.52;;;;;;;;;;4951433;29;20220;-87
2022/06/07 00:19:33;;;;;;;1.77;1.67;;;;;;;;;;4951831;29;20212;-87
2022/06/07 00:22:10;;;;;;;1.77;1.67;;;;;;;;;;4956430;28;20311;-87
2022/06/07 00:24:38;;;;;;;1.70;1.60;;;;;;;;;;4956900;28;20235;-87
2022/06/07 00:27:06;;;;;;;1.70;1.60;;;;;;;;;;4951191;28;20221;-87
2022/06/07 00:29:33;;;;;;;1.77;1.67;;;;;;;;;;4957021;28;20268;-87
2022/06/07 00:32:01;;;;;;;1.70;1.60;;;;;;;;;;4956620;28;20205;-87
2022/06/07 00:34:30;;;;;;;1.80;1.70;;;;;;;;;;4957520;28;20227;-87
2022/06/07 00:36:57;;;;;;;1.70;1.60;;;;;;;;;;4954528;28;20225;-86
2022/06/07 00:39:25;;;;;;;1.60;1.50;;;;;;;;;;4957456;28;20239;-87
2022/06/07 00:41:52;;;;;;;1.80;1.70;;;;;;;;;;4956372;28;20221;-86
2022/06/07 00:44:28;;;;;;;1.60;1.50;;;;;;;;;;4957352;28;20263;-87
2022/06/07 00:46:56;;;;;;;1.50;1.40;;;;;;;;;;4956699;29;20675;-86
2022/06/07 00:49:25;;;;;;;2.08;1.70;;;;;;;;;;4956968;28;20208;-87
2022/06/07 00:51:54;;;;;;;1.90;1.80;;;;;;;;;;4956953;28;20227;-88
2022/06/07 00:54:21;;;;;;;2.00;1.80;;;;;;;;;;4956796;28;20240;-87
2022/06/07 00:56:49;;;;;;;1.60;1.50;;;;;;;;;;4951574;28;20741;-88
2022/06/07 00:59:16;;;;;;;1.70;1.60;;;;;;;;;;4956699;28;20260;-87
2022/06/07 01:01:43;;;;;;;1.80;1.70;;;;;;;;;;4955804;28;20602;-87
2022/06/07 01:04:16;;;;;;;1.70;1.50;;;;;;;;;;4956892;28;20676;-87
2022/06/07 01:12:12;;;;;;;1.50;1.40;;;;;;;;;;4955366;29;20263;-87
2022/06/07 01:14:39;;;;;;;1.60;1.50;;;;;;;;;;4956451;28;20214;-88
2022/06/07 01:17:06;;;;;;;2.05;1.60;;;;;;;;;;4956087;29;20208;-87
2022/06/07 01:19:34;;;;;;;2.05;1.30;;;;;;;;;;4956352;28;20675;-87
2022/06/07 01:22:03;;;;;;;1.50;1.40;;;;;;;;;;4955413;28;20220;-87
2022/06/07 01:24:30;;;;;;;1.40;1.30;;;;;;;;;;4955261;28;20201;-87
2022/06/07 01:26:57;;;;;;;1.30;1.20;;;;;;;;;;4955767;28;20236;-88
2022/06/07 01:29:25;;;;;;;1.50;1.40;;;;;;;;;;4955422;28;20237;-87
2022/06/07 01:31:52;;;;;;;1.30;1.30;;;;;;;;;;4956033;28;20264;-87
2022/06/07 01:34:20;;;;;;;1.38;1.30;;;;;;;;;;4952858;28;20733;-88
2022/06/07 01:36:47;;;;;;;1.33;1.15;;;;;;;;;;4954672;28;20232;-87
2022/06/07 01:42:00;;;;;;;1.25;1.20;;;;;;;;;;4925487;28;20232;-88
2022/06/07 01:44:29;;;;;;;1.42;1.30;;;;;;;;;;4951640;28;20204;-87
2022/06/07 01:46:57;;;;;;;1.60;1.50;;;;;;;;;;4954232;28;20224;-88
2022/06/07 01:49:25;;;;;;;1.15;1.10;;;;;;;;;;4953437;28;20210;-87
2022/06/07 01:51:53;;;;;;;1.38;1.30;;;;;;;;;;4955776;28;20264;-87
2022/06/07 01:54:23;;;;;;;1.15;1.15;;;;;;;;;;4954663;28;20226;-88
2022/06/07 01:56:50;;;;;;;2.53;1.30;;;;;;;;;;4955254;28;20232;-87
2022/06/07 01:59:18;;;;;;;1.30;1.27;;;;;;;;;;4955019;28;20209;-87
2022/06/07 02:01:46;;;;;;;1.40;1.30;;;;;;;;;;4954996;28;20275;-87
2022/06/07 02:04:13;;;;;;;2.47;1.30;;;;;;;;;;4954498;28;20204;-88
2022/06/07 02:06:41;;;;;;;1.40;1.30;;;;;;;;;;4954658;28;20233;-88
2022/06/07 02:09:09;;;;;;;1.40;1.30;;;;;;;;;;4950240;28;20259;-87
2022/06/07 02:11:38;;;;;;;1.48;1.38;;;;;;;;;;4951942;28;20260;-88
2022/06/07 02:14:06;;;;;;;1.55;1.20;;;;;;;;;;4954307;29;20299;-88
2022/06/07 02:16:34;;;;;;;1.10;1.10;;;;;;;;;;4975055;28;20229;-89
2022/06/07 02:19:03;;;;;;;1.42;1.33;;;;;;;;;;4965046;28;20227;-87
2022/06/07 02:21:31;;;;;;;1.23;1.13;;;;;;;;;;4948699;28;20228;-87
2022/06/07 02:23:59;;;;;;;1.30;1.20;;;;;;;;;;4954657;28;20212;-88
2022/06/07 02:26:31;;;;;;;1.25;1.20;;;;;;;;;;4953012;28;20299;-87
2022/06/07 02:29:01;;;;;;;1.17;1.10;;;;;;;;;;4954657;29;20205;-87
2022/06/07 02:31:30;;;;;;;1.20;1.10;;;;;;;;;;4953838;28;20244;-88
2022/06/07 02:33:58;;;;;;;1.10;1.10;;;;;;;;;;4954310;28;20279;-87
2022/06/07 02:36:26;;;;;;;1.52;1.33;;;;;;;;;;4952016;28;20228;-87
2022/06/07 02:38:54;;;;;;;1.23;1.17;;;;;;;;;;4954593;28;20323;-87
2022/06/07 02:41:22;;;;;;;1.10;1.10;;;;;;;;;;4953522;28;20214;-87
2022/06/07 02:43:50;;;;;;;1.05;1.05;;;;;;;;;;4954154;28;20212;-87
2022/06/07 02:46:19;;;;;;;1.17;1.13;;;;;;;;;;4953066;28;20231;-88
2022/06/07 02:48:46;;;;;;;1.30;1.20;;;;;;;;;;4954009;28;20223;-87
2022/06/07 02:51:13;;;;;;;0.90;0.90;;;;;;;;;;4951176;28;20260;-87
2022/06/07 02:53:41;;;;;;;0.93;0.93;;;;;;;;;;4954379;29;20288;-87
2022/06/07 02:56:08;;;;;;;1.27;1.17;;;;;;;;;;4952621;28;20241;-87
2022/06/07 02:58:35;;;;;;;1.10;1.10;;;;;;;;;;4953237;28;20244;-87
2022/06/07 03:01:03;;;;;;;1.38;1.10;;;;;;;;;;4952141;28;20287;-86
2022/06/07 03:03:32;;;;;;;1.30;1.20;;;;;;;;;;4952554;28;20239;-87
2022/06/07 03:05:59;;;;;;;1.10;1.08;;;;;;;;;;4952746;28;20279;-88
2022/06/07 03:08:30;;;;;;;1.33;1.20;;;;;;;;;;4953005;28;20277;-87
2022/06/07 03:10:57;;;;;;;1.15;1.05;;;;;;;;;;4954022;29;20236;-87
2022/06/07 03:13:25;;;;;;;1.10;1.10;;;;;;;;;;4950632;28;20248;-87
2022/06/07 03:15:52;;;;;;;1.10;1.10;;;;;;;;;;4952346;29;20291;-87
2022/06/07 03:18:20;;;;;;;1.00;1.00;;;;;;;;;;4953490;28;20304;-88
2022/06/07 03:20:50;;;;;;;1.10;1.00;;;;;;;;;;4953861;28;20220;-87
2022/06/07 03:23:17;;;;;;;1.10;1.00;;;;;;;;;;4952540;28;20224;-87
2022/06/07 03:25:44;;;;;;;1.00;1.00;;;;;;;;;;4952306;28;20240;-87
2022/06/07 03:28:12;;;;;;;1.30;1.13;;;;;;;;;;4953583;29;20221;-87
2022/06/07 03:30:41;;;;;;;1.23;1.08;;;;;;;;;;4954461;28;20204;-87
2022/06/07 03:33:09;;;;;;;1.13;1.13;;;;;;;;;;4952847;28;20203;-87
2022/06/07 03:35:37;;;;;;;0.98;0.98;;;;;;;;;;4953673;28;20224;-85
2022/06/07 03:38:06;;;;;;;1.10;0.90;;;;;;;;;;4953690;29;20661;-87
2022/06/07 03:40:46;;;;;;;1.30;1.10;;;;;;;;;;4952878;28;20591;-87
2022/06/07 03:43:14;;;;;;;0.90;0.90;;;;;;;;;;4952260;29;20220;-88
2022/06/07 03:45:41;;;;;;;1.25;1.00;;;;;;;;;;4953463;28;20292;-87
2022/06/07 03:48:09;;;;;;;1.05;1.05;;;;;;;;;;4952966;28;20209;-87
2022/06/07 03:50:37;;;;;;;1.02;1.02;;;;;;;;;;4953828;28;20212;-87
2022/06/07 03:53:04;;;;;;;1.08;1.02;;;;;;;;;;4951676;28;20200;-87
2022/06/07 03:55:33;;;;;;;1.17;1.17;;;;;;;;;;4953755;28;20264;-85
2022/06/07 03:58:01;;;;;;;1.33;1.10;;;;;;;;;;4953268;28;20208;-87
2022/06/07 04:00:28;;;;;;;0.85;0.85;;;;;;;;;;4956025;28;20212;-87
2022/06/07 04:02:55;;;;;;;1.20;1.10;;;;;;;;;;4954998;28;20244;-87
2022/06/07 04:05:23;;;;;;;1.10;1.08;;;;;;;;;;4956791;28;20236;-87
2022/06/07 04:10:39;;;;;;;0.93;0.93;;;;;;;;;;4957021;29;20203;-87
2022/06/07 04:13:06;;;;;;;1.00;0.90;;;;;;;;;;4952656;29;20266;-87
2022/06/07 04:15:33;;;;;;;1.08;0.90;;;;;;;;;;4953966;28;20637;-85
2022/06/07 04:18:01;;;;;;;1.00;1.00;;;;;;;;;;4953380;29;20254;-87
2022/06/07 04:20:28;;;;;;;1.17;1.10;;;;;;;;;;4956738;28;20215;-88
2022/06/07 04:22:56;;;;;;;0.90;0.90;;;;;;;;;;4956838;28;20260;-87
2022/06/07 04:25:29;;;;;;;0.80;0.80;;;;;;;;;;4970261;23;20220;-88
2022/06/07 04:31:30;;;;;;;1.00;1.00;;;;;;;;;;4923527;29;20221;-90
2022/06/07 04:34:10;;;;;;;1.00;1.00;;;;;;;;;;4935329;29;20205;-88
2022/06/07 04:39:34;;;;;;;2.30;1.13;;;;;;;;;;4899105;29;20352;-87
2022/06/07 04:42:07;;;;;;;4.95;2.10;;;;;;;;;;4929028;29;20224;-87
2022/06/07 04:44:36;;;;;;;9.32;3.28;;;;;;;;;;4927197;29;20209;-86
2022/06/07 04:47:07;;;;;;;6.88;2.60;;;;;;;;;;4932810;29;20236;-86
2022/06/07 04:49:39;;;;;;;9.55;2.50;;;;;;;;;;4932825;29;20261;-87
2022/06/07 04:52:09;;;;;;;24.80;5.82;;;;;;;;;;4933790;29;20206;-87
2022/06/07 04:54:39;;;;;;;43.47;9.98;;;;;;;;;;4933750;29;20202;-90
2022/06/07 04:57:38;;;;;;;;;;;;;;;;;;;;;
2022/06/07 05:00:07;;;;;;;3.40;1.50;;;;;;;;;;4934465;29;20194;-88
2022/06/07 05:02:42;;;;;;;3.42;1.85;;;;;;;;;;4934175;29;20284;-87
2022/06/07 05:05:15;;;;;;;5.07;2.20;;;;;;;;;;4935587;29;20239;-88
2022/06/07 05:07:43;;;;;;;6.00;1.88;;;;;;;;;;4933110;29;20206;-89
2022/06/07 05:10:13;;;;;;;5.65;2.10;;;;;;;;;;4936114;29;20198;-88
2022/06/07 05:12:43;;;;;;;7.35;1.98;;;;;;;;;;4925638;29;20204;-93
2022/06/07 05:15:11;;;;;;;4.80;1.95;;;;;;;;;;4931608;29;20237;-90
2022/06/07 05:20:43;;;;;;;3.78;1.90;;;;;;;;;;4921515;29;20205;-90
2022/06/07 05:41:57;;;;;;;3.95;2.08;;;;;;;;;;4921620;29;20218;-90
2022/06/07 05:44:28;;;;;;;5.35;2.00;;;;;;;;;;4923526;29;20248;-90
2022/06/07 05:46:56;;;;;;;4.05;1.40;;;;;;;;;;4909810;29;20253;-91
2022/06/07 05:49:23;;;;;;;3.47;1.80;;;;;;;;;;4904502;29;20210;-92
2022/06/07 05:54:53;;;;;;;3.08;1.70;;;;;;;;;;4901543;29;20202;-92
2022/06/07 14:02:15;;;;;;;1.25;1.02;;;;;;;;;;4913804;29;20213;-91
2022/06/07 15:18:17;;;;;;;0.90;0.90;;;;;;;;;;4903493;29;20698;-90
2022/06/07 22:33:31;;;;;;;1.45;1.35;;;;;;;;;;4950845;29;20340;-92
2022/06/07 22:36:00;;;;;;;1.30;1.10;;;;;;;;;;4956023;29;20219;-92
2022/06/07 22:38:28;;;;;;;1.83;1.50;;;;;;;;;;4947214;29;20235;-92
2022/06/07 22:40:56;;;;;;;1.60;1.30;;;;;;;;;;4943365;29;20217;-92
2022/06/07 22:43:23;;;;;;;2.05;1.20;;;;;;;;;;4940968;29;20213;-92
2022/06/07 22:45:51;;;;;;;1.55;1.40;;;;;;;;;;4942504;29;20236;-92
2022/06/07 22:48:23;;;;;;;1.67;1.40;;;;;;;;;;4940944;29;20319;-93
2022/06/07 22:50:58;;;;;;;1.40;1.30;;;;;;;;;;4944589;29;20197;-93
2022/06/07 22:53:29;;;;;;;1.40;1.30;;;;;;;;;;4942780;29;20233;-92
2022/06/07 22:55:58;;;;;;;1.77;1.48;;;;;;;;;;4937240;29;20217;-93
2022/06/07 22:58:33;;;;;;;1.45;1.20;;;;;;;;;;4940537;29;20229;-93
2022/06/07 23:01:09;;;;;;;1.65;1.50;;;;;;;;;;4955116;29;20208;-94
2022/06/07 23:03:39;;;;;;;1.38;1.27;;;;;;;;;;4939265;29;20220;-94
2022/06/07 23:06:21;;;;;;;1.40;1.30;;;;;;;;;;4939375;29;20208;-93
2022/06/07 23:08:52;;;;;;;1.63;1.50;;;;;;;;;;4937634;29;20205;-93
2022/06/07 23:11:24;;;;;;;1.30;1.20;;;;;;;;;;4948967;29;20287;-93
2022/06/07 23:19:30;;;;;;;1.40;1.30;;;;;;;;;;4962080;28;20281;-92
2022/06/07 23:21:59;;;;;;;1.02;1.02;;;;;;;;;;4945858;29;20212;-92
2022/06/07 23:24:29;;;;;;;1.30;1.20;;;;;;;;;;4941513;29;20260;-93
2022/06/07 23:26:57;;;;;;;1.90;1.30;;;;;;;;;;4951985;29;20275;-93
2022/06/07 23:29:25;;;;;;;1.33;1.20;;;;;;;;;;4952055;28;20212;-93
2022/06/07 23:31:52;;;;;;;1.67;1.30;;;;;;;;;;4946261;28;20221;-93
2022/06/07 23:34:20;;;;;;;1.30;1.20;;;;;;;;;;4935267;28;20213;-93
2022/06/07 23:36:47;;;;;;;1.40;1.30;;;;;;;;;;4938478;29;20243;-92
2022/06/07 23:39:16;;;;;;;1.92;1.20;;;;;;;;;;4936100;29;20213;-93
2022/06/07 23:41:47;;;;;;;1.30;1.20;;;;;;;;;;4938721;28;20268;-93
2022/06/07 23:44:15;;;;;;;1.38;1.27;;;;;;;;;;4947358;29;20248;-92
2022/06/07 23:46:44;;;;;;;1.40;1.30;;;;;;;;;;4952521;28;20330;-91
2022/06/07 23:49:13;;;;;;;1.85;1.20;;;;;;;;;;4945268;28;20347;-92
2022/06/07 23:51:43;;;;;;;1.17;1.10;;;;;;;;;;4947528;29;20288;-92
2022/06/07 23:54:11;;;;;;;1.13;1.02;;;;;;;;;;4947461;29;20292;-92
2022/06/07 23:56:42;;;;;;;1.15;1.00;;;;;;;;;;4942570;28;20260;-93
2022/06/07 23:59:11;;;;;;;1.20;1.10;;;;;;;;;;4935261;29;20213;-92
